LPA502 URSS-UGTB
Flight info
| Callsign | LPA502 |
|---|---|
| Flight time | 1h 4m |
| Altitude | 27000 |
| Route | TABAN1S TABAN B147 BANUT L850 TAGAR DCT GIMUR |
| Aircraft | RJ1H/M-SDFGIRWY/LB1 |
Departure
| Time | 2026-04-15 22:56 |
|---|---|
| Airport | Sochi International Airport (URSS) |
Arrival
| Time | 2026-04-16 00:00 |
|---|---|
| Airport | Tbilisi International Airport (UGTB) |
| Time | Latitude | Longitude | Altitude | Speed | Heading |
|---|---|---|---|---|---|
| 2026-04-15 22:19 | 43.44571 | 39.93873 | 70 ft | 0 kts | 4° |
| 2026-04-15 22:41 | 43.44559 | 39.93872 | 60 ft | 3 kts | 2° |
| 2026-04-15 22:42 | 43.44539 | 39.93871 | 62 ft | 3 kts | 4° |
| 2026-04-15 22:42 | 43.44519 | 39.93867 | 67 ft | 2 kts | 18° |
| 2026-04-15 22:42 | 43.44505 | 39.93854 | 66 ft | 1 kts | 59° |
| 2026-04-15 22:42 | 43.44503 | 39.93850 | 67 ft | 2 kts | 65° |
| 2026-04-15 22:49 | 43.44504 | 39.93851 | 67 ft | 0 kts | 65° |
| 2026-04-15 22:49 | 43.44505 | 39.93856 | 66 ft | 1 kts | 65° |
| 2026-04-15 22:50 | 43.44509 | 39.93868 | 67 ft | 2 kts | 65° |
| 2026-04-15 22:50 | 43.44517 | 39.93889 | 65 ft | 3 kts | 65° |
| 2026-04-15 22:50 | 43.44528 | 39.93921 | 62 ft | 4 kts | 65° |
| 2026-04-15 22:50 | 43.44542 | 39.93964 | 73 ft | 5 kts | 65° |
| 2026-04-15 22:51 | 43.44561 | 39.94020 | 70 ft | 9 kts | 65° |
| 2026-04-15 22:51 | 43.44595 | 39.94119 | 72 ft | 14 kts | 64° |
| 2026-04-15 22:51 | 43.44642 | 39.94255 | 67 ft | 18 kts | 65° |
| 2026-04-15 22:51 | 43.44700 | 39.94425 | 66 ft | 22 kts | 65° |
| 2026-04-15 22:52 | 43.44763 | 39.94610 | 69 ft | 20 kts | 65° |
| 2026-04-15 22:52 | 43.44819 | 39.94774 | 68 ft | 18 kts | 64° |
| 2026-04-15 22:52 | 43.44868 | 39.94917 | 75 ft | 14 kts | 65° |
| 2026-04-15 22:52 | 43.44905 | 39.95024 | 83 ft | 11 kts | 65° |
| 2026-04-15 22:53 | 43.44932 | 39.95106 | 84 ft | 8 kts | 65° |
| 2026-04-15 22:53 | 43.44956 | 39.95172 | 85 ft | 7 kts | 62° |
| 2026-04-15 22:53 | 43.44980 | 39.95236 | 88 ft | 8 kts | 64° |
| 2026-04-15 22:53 | 43.44995 | 39.95309 | 89 ft | 9 kts | 106° |
| 2026-04-15 22:54 | 43.44949 | 39.95359 | 90 ft | 8 kts | 154° |
| 2026-04-15 22:54 | 43.44900 | 39.95365 | 90 ft | 8 kts | 228° |
| 2026-04-15 22:54 | 43.44897 | 39.95359 | 90 ft | 0 kts | 237° |
| 2026-04-15 22:55 | 43.44869 | 39.95278 | 83 ft | 38 kts | 245° |
| 2026-04-15 22:55 | 43.44644 | 39.94621 | 73 ft | 110 kts | 245° |
| 2026-04-15 22:55 | 43.44245 | 39.93437 | 106 ft | 156 kts | 246° |
| 2026-04-15 22:55 | 43.43789 | 39.92010 | 378 ft | 167 kts | 248° |
| 2026-04-15 22:56 | 43.43301 | 39.90561 | 797 ft | 168 kts | 245° |
| 2026-04-15 22:56 | 43.42806 | 39.89149 | 1398 ft | 161 kts | 243° |
| 2026-04-15 22:56 | 43.42275 | 39.87685 | 1596 ft | 183 kts | 243° |
| 2026-04-15 22:56 | 43.41661 | 39.86017 | 1778 ft | 208 kts | 242° |
| 2026-04-15 22:57 | 43.41003 | 39.84143 | 2214 ft | 226 kts | 251° |
| 2026-04-15 22:57 | 43.40662 | 39.82025 | 3010 ft | 228 kts | 260° |
| 2026-04-15 22:57 | 43.40401 | 39.79807 | 3743 ft | 242 kts | 261° |
| 2026-04-15 22:57 | 43.40153 | 39.77460 | 4363 ft | 251 kts | 263° |
| 2026-04-15 22:58 | 43.39912 | 39.74999 | 4588 ft | 264 kts | 263° |
| 2026-04-15 22:58 | 43.39676 | 39.72478 | 5075 ft | 267 kts | 264° |
| 2026-04-15 22:58 | 43.39437 | 39.69938 | 5563 ft | 269 kts | 264° |
| 2026-04-15 22:58 | 43.39182 | 39.67387 | 6067 ft | 270 kts | 263° |
| 2026-04-15 22:59 | 43.38849 | 39.64837 | 6526 ft | 273 kts | 252° |
| 2026-04-15 22:59 | 43.37757 | 39.62719 | 6917 ft | 278 kts | 217° |
| 2026-04-15 22:59 | 43.36619 | 39.61912 | 7175 ft | 281 kts | 196° |
| 2026-04-15 22:59 | 43.34673 | 39.61628 | 7588 ft | 284 kts | 181° |
| 2026-04-15 23:00 | 43.32687 | 39.61592 | 8038 ft | 287 kts | 181° |
| 2026-04-15 23:00 | 43.30031 | 39.61576 | 8716 ft | 290 kts | 181° |
| 2026-04-15 23:00 | 43.28004 | 39.61565 | 9289 ft | 293 kts | 181° |
| 2026-04-15 23:00 | 43.25957 | 39.61524 | 9885 ft | 296 kts | 182° |
| 2026-04-15 23:01 | 43.23886 | 39.61442 | 10470 ft | 300 kts | 184° |
| 2026-04-15 23:01 | 43.22473 | 39.61368 | 10834 ft | 303 kts | 184° |
| 2026-04-15 23:01 | 43.20314 | 39.61229 | 11100 ft | 318 kts | 185° |
| 2026-04-15 23:01 | 43.18065 | 39.61059 | 11393 ft | 329 kts | 186° |
| 2026-04-15 23:02 | 43.15760 | 39.60870 | 11844 ft | 333 kts | 186° |
| 2026-04-15 23:02 | 43.13428 | 39.60687 | 12309 ft | 338 kts | 186° |
| 2026-04-15 23:02 | 43.11066 | 39.60552 | 12777 ft | 343 kts | 181° |
| 2026-04-15 23:02 | 43.08761 | 39.61301 | 13180 ft | 353 kts | 154° |
| 2026-04-15 23:03 | 43.06837 | 39.63405 | 13579 ft | 359 kts | 128° |
| 2026-04-15 23:03 | 43.05668 | 39.66404 | 13969 ft | 359 kts | 104° |
| 2026-04-15 23:03 | 43.05088 | 39.69727 | 14328 ft | 360 kts | 99° |
| 2026-04-15 23:03 | 43.04537 | 39.73077 | 14722 ft | 362 kts | 100° |
| 2026-04-15 23:04 | 43.03944 | 39.76431 | 15095 ft | 364 kts | 101° |
| 2026-04-15 23:04 | 43.03295 | 39.79790 | 15460 ft | 366 kts | 103° |
| 2026-04-15 23:04 | 43.02588 | 39.83138 | 15819 ft | 368 kts | 104° |
| 2026-04-15 23:04 | 43.01837 | 39.86500 | 16149 ft | 370 kts | 105° |
| 2026-04-15 23:05 | 43.01054 | 39.89869 | 16468 ft | 372 kts | 105° |
| 2026-04-15 23:05 | 43.00259 | 39.93205 | 16781 ft | 374 kts | 106° |
| 2026-04-15 23:05 | 42.99447 | 39.96590 | 17091 ft | 376 kts | 105° |
| 2026-04-15 23:05 | 42.98658 | 40.00000 | 17401 ft | 377 kts | 104° |
| 2026-04-15 23:06 | 42.97898 | 40.03436 | 17704 ft | 379 kts | 104° |
| 2026-04-15 23:06 | 42.97146 | 40.06889 | 18010 ft | 380 kts | 104° |
| 2026-04-15 23:06 | 42.96410 | 40.10374 | 18306 ft | 382 kts | 104° |
| 2026-04-15 23:06 | 42.95668 | 40.13862 | 18596 ft | 383 kts | 104° |
| 2026-04-15 23:07 | 42.94919 | 40.17370 | 18859 ft | 385 kts | 104° |
| 2026-04-15 23:07 | 42.94176 | 40.20845 | 19101 ft | 387 kts | 104° |
| 2026-04-15 23:07 | 42.93425 | 40.24373 | 19357 ft | 388 kts | 104° |
| 2026-04-15 23:07 | 42.92662 | 40.27921 | 19620 ft | 389 kts | 104° |
| 2026-04-15 23:08 | 42.91876 | 40.31468 | 19879 ft | 391 kts | 105° |
| 2026-04-15 23:08 | 42.91087 | 40.35026 | 20128 ft | 393 kts | 104° |
| 2026-04-15 23:08 | 42.90307 | 40.38599 | 20387 ft | 394 kts | 104° |
| 2026-04-15 23:08 | 42.89531 | 40.42186 | 20644 ft | 395 kts | 104° |
| 2026-04-15 23:09 | 42.88755 | 40.45784 | 20895 ft | 396 kts | 104° |
| 2026-04-15 23:09 | 42.87956 | 40.49376 | 21148 ft | 397 kts | 105° |
| 2026-04-15 23:09 | 42.87146 | 40.52993 | 21401 ft | 399 kts | 105° |
| 2026-04-15 23:09 | 42.86338 | 40.56620 | 21609 ft | 401 kts | 104° |
| 2026-04-15 23:10 | 42.85544 | 40.60281 | 21848 ft | 402 kts | 104° |
| 2026-04-15 23:10 | 42.84742 | 40.63884 | 22089 ft | 403 kts | 105° |
| 2026-04-15 23:10 | 42.83925 | 40.67546 | 22331 ft | 405 kts | 105° |
| 2026-04-15 23:10 | 42.83102 | 40.71224 | 22568 ft | 406 kts | 105° |
| 2026-04-15 23:11 | 42.82282 | 40.74903 | 22798 ft | 407 kts | 105° |
| 2026-04-15 23:11 | 42.81459 | 40.78594 | 23023 ft | 408 kts | 105° |
| 2026-04-15 23:11 | 42.80635 | 40.82301 | 23249 ft | 409 kts | 105° |
| 2026-04-15 23:11 | 42.79808 | 40.86026 | 23482 ft | 411 kts | 105° |
| 2026-04-15 23:12 | 42.78982 | 40.89760 | 23669 ft | 413 kts | 105° |
| 2026-04-15 23:12 | 42.78154 | 40.93509 | 23880 ft | 414 kts | 105° |
| 2026-04-15 23:12 | 42.77323 | 40.97267 | 24065 ft | 415 kts | 105° |
| 2026-04-15 23:12 | 42.76472 | 41.01025 | 24265 ft | 416 kts | 106° |
| 2026-04-15 23:13 | 42.75604 | 41.04794 | 24340 ft | 420 kts | 106° |
| 2026-04-15 23:13 | 42.74748 | 41.08580 | 24346 ft | 426 kts | 105° |
| 2026-04-15 23:13 | 42.73882 | 41.12458 | 24407 ft | 431 kts | 105° |
| 2026-04-15 23:13 | 42.72977 | 41.16403 | 24582 ft | 432 kts | 106° |
| 2026-04-15 23:14 | 42.72088 | 41.20259 | 24749 ft | 432 kts | 106° |
| 2026-04-15 23:14 | 42.71207 | 41.24180 | 24882 ft | 434 kts | 105° |
| 2026-04-15 23:14 | 42.70321 | 41.28104 | 25048 ft | 435 kts | 106° |
| 2026-04-15 23:14 | 42.69415 | 41.32035 | 25248 ft | 434 kts | 106° |
| 2026-04-15 23:15 | 42.68508 | 41.35958 | 25388 ft | 437 kts | 106° |
| 2026-04-15 23:15 | 42.67594 | 41.39906 | 25533 ft | 438 kts | 106° |
| 2026-04-15 23:15 | 42.66696 | 41.43863 | 25694 ft | 439 kts | 105° |
| 2026-04-15 23:15 | 42.65795 | 41.47822 | 25877 ft | 439 kts | 106° |
| 2026-04-15 23:16 | 42.64877 | 41.51789 | 26024 ft | 441 kts | 106° |
| 2026-04-15 23:16 | 42.63950 | 41.55777 | 26037 ft | 446 kts | 106° |
| 2026-04-15 23:16 | 42.63009 | 41.59812 | 26038 ft | 450 kts | 106° |
| 2026-04-15 23:16 | 42.62057 | 41.63892 | 26050 ft | 455 kts | 106° |
| 2026-04-15 23:17 | 42.61101 | 41.67990 | 26169 ft | 456 kts | 106° |
| 2026-04-15 23:17 | 42.60158 | 41.72099 | 26312 ft | 456 kts | 105° |
| 2026-04-15 23:17 | 42.59211 | 41.76216 | 26444 ft | 457 kts | 106° |
| 2026-04-15 23:17 | 42.58256 | 41.80334 | 26575 ft | 458 kts | 106° |
| 2026-04-15 23:18 | 42.57295 | 41.84468 | 26703 ft | 459 kts | 106° |
| 2026-04-15 23:18 | 42.56334 | 41.88593 | 26840 ft | 459 kts | 106° |
| 2026-04-15 23:18 | 42.55369 | 41.92734 | 26962 ft | 460 kts | 106° |
| 2026-04-15 23:18 | 42.54404 | 41.96870 | 27093 ft | 461 kts | 106° |
| 2026-04-15 23:19 | 42.53450 | 42.00971 | 27200 ft | 462 kts | 106° |
| 2026-04-15 23:19 | 42.52480 | 42.05121 | 27270 ft | 460 kts | 106° |
| 2026-04-15 23:19 | 42.51497 | 42.09222 | 27268 ft | 456 kts | 107° |
| 2026-04-15 23:19 | 42.50517 | 42.13313 | 27267 ft | 456 kts | 106° |
| 2026-04-15 23:20 | 42.49553 | 42.17410 | 27253 ft | 456 kts | 106° |
| 2026-04-15 23:20 | 42.48591 | 42.21507 | 27261 ft | 457 kts | 106° |
| 2026-04-15 23:20 | 42.47585 | 42.25589 | 27265 ft | 458 kts | 107° |
| 2026-04-15 23:20 | 42.46591 | 42.29692 | 27255 ft | 459 kts | 106° |
| 2026-04-15 23:21 | 42.45611 | 42.33810 | 27268 ft | 459 kts | 106° |
| 2026-04-15 23:21 | 42.44640 | 42.37927 | 27258 ft | 460 kts | 106° |
| 2026-04-15 23:21 | 42.43669 | 42.42059 | 27264 ft | 460 kts | 106° |
| 2026-04-15 23:21 | 42.42702 | 42.46131 | 27259 ft | 460 kts | 107° |
| 2026-04-15 23:22 | 42.41697 | 42.50246 | 27242 ft | 460 kts | 107° |
| 2026-04-15 23:22 | 42.40690 | 42.54352 | 27240 ft | 460 kts | 107° |
| 2026-04-15 23:22 | 42.39700 | 42.58476 | 27234 ft | 461 kts | 106° |
| 2026-04-15 23:22 | 42.38719 | 42.62606 | 27235 ft | 462 kts | 106° |
| 2026-04-15 23:23 | 42.37712 | 42.66741 | 27237 ft | 462 kts | 107° |
| 2026-04-15 23:23 | 42.36696 | 42.70865 | 27231 ft | 462 kts | 107° |
| 2026-04-15 23:23 | 42.35684 | 42.74991 | 27239 ft | 462 kts | 106° |
| 2026-04-15 23:23 | 42.34697 | 42.79117 | 27243 ft | 462 kts | 107° |
| 2026-04-15 23:24 | 42.33685 | 42.83250 | 27241 ft | 462 kts | 107° |
| 2026-04-15 23:24 | 42.32670 | 42.87366 | 27255 ft | 463 kts | 107° |
| 2026-04-15 23:24 | 42.31646 | 42.91493 | 27252 ft | 464 kts | 107° |
| 2026-04-15 23:24 | 42.30643 | 42.95636 | 27250 ft | 464 kts | 106° |
| 2026-04-15 23:25 | 42.29634 | 42.99777 | 27254 ft | 464 kts | 107° |
| 2026-04-15 23:25 | 42.28609 | 43.03911 | 27249 ft | 464 kts | 107° |
| 2026-04-15 23:25 | 42.27609 | 43.07986 | 27241 ft | 463 kts | 106° |
| 2026-04-15 23:25 | 42.26604 | 43.12189 | 27252 ft | 463 kts | 106° |
| 2026-04-15 23:26 | 42.25630 | 43.16283 | 27262 ft | 464 kts | 106° |
| 2026-04-15 23:26 | 42.24631 | 43.20433 | 27256 ft | 465 kts | 107° |
| 2026-04-15 23:26 | 42.23606 | 43.24581 | 27253 ft | 465 kts | 107° |
| 2026-04-15 23:26 | 42.22590 | 43.28726 | 27260 ft | 465 kts | 106° |
| 2026-04-15 23:27 | 42.21598 | 43.32877 | 27259 ft | 466 kts | 106° |
| 2026-04-15 23:27 | 42.20588 | 43.37036 | 27260 ft | 466 kts | 107° |
| 2026-04-15 23:27 | 42.19566 | 43.41176 | 27265 ft | 466 kts | 107° |
| 2026-04-15 23:27 | 42.18535 | 43.45331 | 27263 ft | 466 kts | 107° |
| 2026-04-15 23:28 | 42.17537 | 43.49427 | 27261 ft | 465 kts | 106° |
| 2026-04-15 23:28 | 42.16536 | 43.53580 | 27268 ft | 466 kts | 107° |
| 2026-04-15 23:28 | 42.15508 | 43.57734 | 27275 ft | 468 kts | 107° |
| 2026-04-15 23:28 | 42.14471 | 43.61895 | 27266 ft | 468 kts | 107° |
| 2026-04-15 23:29 | 42.13449 | 43.66078 | 27264 ft | 470 kts | 106° |
| 2026-04-15 23:29 | 42.12429 | 43.70260 | 27259 ft | 470 kts | 107° |
| 2026-04-15 23:29 | 42.11384 | 43.74442 | 27255 ft | 470 kts | 107° |
| 2026-04-15 23:29 | 42.10341 | 43.78601 | 27249 ft | 470 kts | 107° |
| 2026-04-15 23:30 | 42.09293 | 43.82770 | 27256 ft | 469 kts | 107° |
| 2026-04-15 23:30 | 42.08271 | 43.86946 | 27255 ft | 470 kts | 106° |
| 2026-04-15 23:30 | 42.07241 | 43.91127 | 27248 ft | 471 kts | 107° |
| 2026-04-15 23:30 | 42.06191 | 43.95307 | 27249 ft | 471 kts | 107° |
| 2026-04-15 23:31 | 42.05151 | 43.99428 | 27252 ft | 471 kts | 107° |
| 2026-04-15 23:31 | 42.04092 | 44.03611 | 27247 ft | 471 kts | 107° |
| 2026-04-15 23:31 | 42.02996 | 44.07769 | 27045 ft | 474 kts | 110° |
| 2026-04-15 23:31 | 42.01719 | 44.11784 | 26723 ft | 461 kts | 113° |
| 2026-04-15 23:32 | 42.00243 | 44.15563 | 26333 ft | 452 kts | 121° |
| 2026-04-15 23:32 | 41.98487 | 44.19020 | 25950 ft | 443 kts | 127° |
| 2026-04-15 23:32 | 41.96610 | 44.22264 | 25514 ft | 437 kts | 129° |
| 2026-04-15 23:32 | 41.94687 | 44.25410 | 25026 ft | 433 kts | 130° |
| 2026-04-15 23:33 | 41.92779 | 44.28514 | 24557 ft | 429 kts | 130° |
| 2026-04-15 23:33 | 41.90884 | 44.31610 | 24086 ft | 425 kts | 129° |
| 2026-04-15 23:33 | 41.89031 | 44.34689 | 23594 ft | 422 kts | 129° |
| 2026-04-15 23:33 | 41.87195 | 44.37756 | 23045 ft | 419 kts | 129° |
| 2026-04-15 23:34 | 41.85381 | 44.40796 | 22522 ft | 415 kts | 129° |
| 2026-04-15 23:34 | 41.83584 | 44.43803 | 21998 ft | 411 kts | 129° |
| 2026-04-15 23:34 | 41.81802 | 44.46782 | 21498 ft | 407 kts | 128° |
| 2026-04-15 23:36 | 41.71639 | 44.63839 | 17853 ft | 329 kts | 129° |
| 2026-04-15 23:36 | 41.70210 | 44.66214 | 17146 ft | 331 kts | 129° |
| 2026-04-15 23:36 | 41.68746 | 44.68645 | 16486 ft | 337 kts | 129° |
| 2026-04-15 23:36 | 41.67264 | 44.71104 | 15856 ft | 341 kts | 129° |
| 2026-04-15 23:37 | 41.65768 | 44.73588 | 15235 ft | 343 kts | 129° |
| 2026-04-15 23:37 | 41.64268 | 44.76080 | 14647 ft | 345 kts | 129° |
| 2026-04-15 23:37 | 41.62760 | 44.78588 | 14051 ft | 346 kts | 129° |
| 2026-04-15 23:37 | 41.61252 | 44.81104 | 13387 ft | 347 kts | 129° |
| 2026-04-15 23:38 | 41.59746 | 44.83621 | 12730 ft | 347 kts | 129° |
| 2026-04-15 23:38 | 41.58316 | 44.86012 | 12093 ft | 309 kts | 129° |
| 2026-04-15 23:38 | 41.57044 | 44.88152 | 11442 ft | 281 kts | 129° |
| 2026-04-15 23:38 | 41.55870 | 44.90097 | 10786 ft | 264 kts | 129° |
| 2026-04-15 23:39 | 41.54740 | 44.91952 | 10139 ft | 254 kts | 129° |
| 2026-04-15 23:39 | 41.53577 | 44.93845 | 9437 ft | 271 kts | 130° |
| 2026-04-15 23:39 | 41.52360 | 44.95832 | 8770 ft | 282 kts | 129° |
| 2026-04-15 23:39 | 41.51103 | 44.97901 | 8162 ft | 291 kts | 129° |
| 2026-04-15 23:40 | 41.49812 | 45.00026 | 7528 ft | 297 kts | 129° |
| 2026-04-15 23:40 | 41.48530 | 45.02212 | 6932 ft | 295 kts | 123° |
| 2026-04-15 23:40 | 41.47903 | 45.04576 | 6292 ft | 261 kts | 89° |
| 2026-04-15 23:40 | 41.48325 | 45.06772 | 5698 ft | 235 kts | 53° |
| 2026-04-15 23:41 | 41.49501 | 45.08076 | 5220 ft | 214 kts | 14° |
| 2026-04-15 23:41 | 41.50971 | 45.08166 | 4840 ft | 215 kts | 349° |
| 2026-04-15 23:41 | 41.52479 | 45.07912 | 4520 ft | 222 kts | 352° |
| 2026-04-15 23:41 | 41.54033 | 45.07731 | 4209 ft | 224 kts | 348° |
| 2026-04-15 23:42 | 41.55487 | 45.07081 | 4094 ft | 218 kts | 334° |
| 2026-04-15 23:42 | 41.56820 | 45.06180 | 4019 ft | 211 kts | 330° |
| 2026-04-15 23:42 | 41.58044 | 45.05178 | 3999 ft | 202 kts | 325° |
| 2026-04-15 23:42 | 41.59154 | 45.04151 | 4045 ft | 185 kts | 323° |
| 2026-04-15 23:43 | 41.60163 | 45.03258 | 4079 ft | 164 kts | 330° |
| 2026-04-15 23:43 | 41.60919 | 45.02228 | 4045 ft | 157 kts | 286° |
| 2026-04-15 23:43 | 41.60714 | 45.00832 | 4018 ft | 163 kts | 233° |
| 2026-04-15 23:43 | 41.59715 | 45.00178 | 4032 ft | 171 kts | 182° |
| 2026-04-15 23:44 | 41.58515 | 45.00443 | 4063 ft | 174 kts | 168° |
| 2026-04-15 23:44 | 41.57368 | 45.00905 | 4062 ft | 174 kts | 164° |
| 2026-04-15 23:44 | 41.56225 | 45.01421 | 4073 ft | 173 kts | 163° |
| 2026-04-15 23:44 | 41.55080 | 45.01966 | 4074 ft | 175 kts | 161° |
| 2026-04-15 23:45 | 41.53934 | 45.02527 | 4083 ft | 176 kts | 161° |
| 2026-04-15 23:45 | 41.52787 | 45.03112 | 4039 ft | 176 kts | 160° |
| 2026-04-15 23:45 | 41.51817 | 45.04071 | 4066 ft | 177 kts | 120° |
| 2026-04-15 23:45 | 41.51657 | 45.05643 | 4075 ft | 173 kts | 73° |
| 2026-04-15 23:46 | 41.52128 | 45.07107 | 4093 ft | 172 kts | 57° |
| 2026-04-15 23:46 | 41.52756 | 45.08470 | 4062 ft | 172 kts | 47° |
| 2026-04-15 23:46 | 41.53741 | 45.09131 | 3969 ft | 153 kts | 352° |
| 2026-04-15 23:46 | 41.54695 | 45.08863 | 3945 ft | 131 kts | 341° |
| 2026-04-15 23:47 | 41.55250 | 45.08605 | 3977 ft | 128 kts | 333° |
| 2026-04-15 23:47 | 41.56297 | 45.07817 | 4004 ft | 130 kts | 324° |
| 2026-04-15 23:47 | 41.57018 | 45.07110 | 4012 ft | 128 kts | 319° |
| 2026-04-15 23:47 | 41.57715 | 45.06325 | 3881 ft | 132 kts | 320° |
| 2026-04-15 23:48 | 41.58417 | 45.05523 | 3680 ft | 136 kts | 319° |
| 2026-04-15 23:48 | 41.58900 | 45.04961 | 3562 ft | 135 kts | 316° |
| 2026-04-15 23:48 | 41.59594 | 45.04136 | 3343 ft | 137 kts | 318° |
| 2026-04-15 23:48 | 41.60319 | 45.03313 | 3065 ft | 139 kts | 319° |
| 2026-04-15 23:49 | 41.61022 | 45.02467 | 2773 ft | 134 kts | 316° |
| 2026-04-15 23:49 | 41.61684 | 45.01643 | 2548 ft | 128 kts | 317° |
| 2026-04-15 23:49 | 41.62331 | 45.00841 | 2410 ft | 127 kts | 316° |
| 2026-04-15 23:49 | 41.62977 | 45.00034 | 2267 ft | 127 kts | 316° |
| 2026-04-15 23:50 | 41.63635 | 44.99236 | 2109 ft | 129 kts | 314° |
| 2026-04-15 23:50 | 41.64295 | 44.98390 | 1980 ft | 133 kts | 313° |
| 2026-04-15 23:50 | 41.64972 | 44.97558 | 1820 ft | 132 kts | 314° |
| 2026-04-15 23:51 | 41.66290 | 44.95901 | 1522 ft | 120 kts | 313° |
| 2026-04-15 23:51 | 41.66843 | 44.95200 | 1525 ft | 100 kts | 316° |
| 2026-04-15 23:51 | 41.67360 | 44.94551 | 1523 ft | 113 kts | 317° |
| 2026-04-15 23:51 | 41.67999 | 44.93739 | 1718 ft | 136 kts | 311° |
| 2026-04-15 23:52 | 41.68483 | 44.92615 | 2176 ft | 145 kts | 276° |
| 2026-04-15 23:52 | 41.68115 | 44.91340 | 2634 ft | 169 kts | 222° |
| 2026-04-15 23:52 | 41.66933 | 44.91085 | 3136 ft | 184 kts | 162° |
| 2026-04-15 23:52 | 41.65888 | 44.91971 | 3405 ft | 169 kts | 139° |
| 2026-04-15 23:53 | 41.65392 | 44.93323 | 3753 ft | 169 kts | 84° |
| 2026-04-15 23:53 | 41.65740 | 44.94876 | 3973 ft | 181 kts | 68° |
| 2026-04-15 23:53 | 41.65785 | 44.96565 | 4016 ft | 185 kts | 96° |
| 2026-04-15 23:53 | 41.65285 | 44.98131 | 4021 ft | 188 kts | 136° |
| 2026-04-15 23:54 | 41.64252 | 44.99183 | 4041 ft | 186 kts | 147° |
| 2026-04-15 23:54 | 41.63126 | 45.00036 | 4051 ft | 186 kts | 153° |
| 2026-04-15 23:54 | 41.61970 | 45.00825 | 4037 ft | 186 kts | 154° |
| 2026-04-15 23:54 | 41.60817 | 45.01575 | 4025 ft | 183 kts | 155° |
| 2026-04-15 23:55 | 41.59670 | 45.02308 | 4011 ft | 183 kts | 155° |
| 2026-04-15 23:55 | 41.58532 | 45.03037 | 3994 ft | 184 kts | 155° |
| 2026-04-15 23:55 | 41.57387 | 45.03759 | 3999 ft | 175 kts | 156° |
| 2026-04-15 23:55 | 41.56454 | 45.04682 | 3922 ft | 166 kts | 118° |
| 2026-04-15 23:56 | 41.56364 | 45.06133 | 3916 ft | 159 kts | 62° |
| 2026-04-15 23:56 | 41.57125 | 45.07062 | 3951 ft | 149 kts | 9° |
| 2026-04-15 23:56 | 41.58014 | 45.06764 | 3964 ft | 130 kts | 309° |
| 2026-04-15 23:56 | 41.58516 | 45.05751 | 4028 ft | 134 kts | 307° |
| 2026-04-15 23:57 | 41.59135 | 45.04805 | 3963 ft | 132 kts | 316° |
| 2026-04-15 23:57 | 41.59823 | 45.03969 | 3760 ft | 139 kts | 317° |
| 2026-04-15 23:57 | 41.60546 | 45.03084 | 3436 ft | 142 kts | 317° |
| 2026-04-15 23:57 | 41.61267 | 45.02177 | 3012 ft | 143 kts | 316° |
| 2026-04-15 23:58 | 41.61989 | 45.01279 | 2604 ft | 138 kts | 317° |
| 2026-04-15 23:58 | 41.62678 | 45.00424 | 2340 ft | 132 kts | 316° |
| 2026-04-15 23:58 | 41.63344 | 44.99589 | 2138 ft | 130 kts | 316° |
| 2026-04-15 23:58 | 41.64004 | 44.98762 | 1945 ft | 133 kts | 315° |
| 2026-04-15 23:59 | 41.64674 | 44.97921 | 1802 ft | 133 kts | 314° |
| 2026-04-15 23:59 | 41.65353 | 44.97075 | 1672 ft | 133 kts | 313° |
| 2026-04-15 23:59 | 41.66019 | 44.96239 | 1538 ft | 126 kts | 312° |
| 2026-04-15 23:59 | 41.66590 | 44.95514 | 1524 ft | 92 kts | 316° |
| 2026-04-16 00:00 | 41.66930 | 44.95088 | 1526 ft | 52 kts | 317° |
| 2026-04-16 00:00 | 41.67179 | 44.94776 | 1524 ft | 46 kts | 316° |
| 2026-04-16 00:00 | 41.67395 | 44.94506 | 1523 ft | 39 kts | 317° |
| 2026-04-16 00:00 | 41.67533 | 44.94443 | 1522 ft | 18 kts | 64° |
| 2026-04-16 00:01 | 41.67561 | 44.94556 | 1522 ft | 10 kts | 72° |
| 2026-04-16 00:01 | 41.67581 | 44.94637 | 1524 ft | 8 kts | 72° |
| 2026-04-16 00:01 | 41.67598 | 44.94709 | 1525 ft | 9 kts | 72° |
| 2026-04-16 00:01 | 41.67619 | 44.94797 | 1523 ft | 11 kts | 72° |
| 2026-04-16 00:02 | 41.67644 | 44.94901 | 1526 ft | 12 kts | 74° |
| 2026-04-16 00:02 | 41.67664 | 44.95018 | 1526 ft | 14 kts | 92° |
| 2026-04-16 00:02 | 41.67605 | 44.95125 | 1526 ft | 15 kts | 134° |
| 2026-04-16 00:02 | 41.67529 | 44.95235 | 1526 ft | 16 kts | 131° |
| 2026-04-16 00:03 | 41.67465 | 44.95334 | 1523 ft | 12 kts | 131° |
| 2026-04-16 00:03 | 41.67411 | 44.95422 | 1526 ft | 10 kts | 111° |
| 2026-04-16 00:03 | 41.67439 | 44.95485 | 1526 ft | 7 kts | 42° |
| 2026-04-16 00:03 | 41.67483 | 44.95536 | 1526 ft | 9 kts | 23° |
| 2026-04-16 00:04 | 41.67535 | 44.95536 | 1526 ft | 0 kts | 356° |